ITY806 LIRF-LEIB
Flight info
| Callsign | ITY806 |
|---|---|
| Flight time | 1h 38m |
| Altitude | 37000 |
| Route | GISPA DCT CORSI DCT BALEN UT250 RIXOT |
| Aircraft | A320/M-SDE3FGHIRWY/LB1 |
Departure
| Time | 2026-05-07 12:51 |
|---|---|
| Airport | Rome–Fiumicino Leonardo da Vinci International Airport (LIRF) |
Arrival
| Time | 2026-05-07 14:29 |
|---|---|
| Airport | Ibiza Airport (LEIB) |
| Time | Latitude | Longitude | Altitude | Speed | Heading |
|---|---|---|---|---|---|
| 2026-05-07 12:34 | 41.79632 | 12.25792 | 14 ft | 0 kts | 115° |
| 2026-05-07 12:40 | 41.79636 | 12.25780 | 16 ft | 2 kts | 117° |
| 2026-05-07 12:40 | 41.79642 | 12.25764 | 17 ft | 2 kts | 117° |
| 2026-05-07 12:40 | 41.79648 | 12.25749 | 17 ft | 1 kts | 111° |
| 2026-05-07 12:41 | 41.79651 | 12.25741 | 16 ft | 1 kts | 91° |
| 2026-05-07 12:41 | 41.79651 | 12.25734 | 17 ft | 1 kts | 54° |
| 2026-05-07 12:41 | 41.79648 | 12.25727 | 15 ft | 1 kts | 33° |
| 2026-05-07 12:41 | 41.79644 | 12.25723 | 15 ft | 1 kts | 27° |
| 2026-05-07 12:42 | 41.79639 | 12.25720 | 16 ft | 1 kts | 25° |
| 2026-05-07 12:42 | 41.79634 | 12.25717 | 18 ft | 1 kts | 24° |
| 2026-05-07 12:43 | 41.79634 | 12.25716 | 18 ft | 0 kts | 24° |
| 2026-05-07 12:44 | 41.79654 | 12.25729 | 17 ft | 11 kts | 24° |
| 2026-05-07 12:44 | 41.79727 | 12.25775 | 14 ft | 11 kts | 25° |
| 2026-05-07 12:44 | 41.79790 | 12.25815 | 14 ft | 9 kts | 24° |
| 2026-05-07 12:44 | 41.79847 | 12.25826 | 14 ft | 9 kts | 343° |
| 2026-05-07 12:45 | 41.79928 | 12.25856 | 14 ft | 15 kts | 24° |
| 2026-05-07 12:45 | 41.80044 | 12.25924 | 14 ft | 21 kts | 23° |
| 2026-05-07 12:45 | 41.80184 | 12.26015 | 15 ft | 23 kts | 25° |
| 2026-05-07 12:45 | 41.80314 | 12.26095 | 15 ft | 20 kts | 25° |
| 2026-05-07 12:46 | 41.80434 | 12.26167 | 16 ft | 16 kts | 19° |
| 2026-05-07 12:46 | 41.80526 | 12.26231 | 16 ft | 15 kts | 65° |
| 2026-05-07 12:46 | 41.80561 | 12.26359 | 18 ft | 14 kts | 70° |
| 2026-05-07 12:46 | 41.80593 | 12.26474 | 18 ft | 13 kts | 70° |
| 2026-05-07 12:47 | 41.80622 | 12.26578 | 16 ft | 11 kts | 70° |
| 2026-05-07 12:47 | 41.80648 | 12.26671 | 15 ft | 10 kts | 70° |
| 2026-05-07 12:47 | 41.80672 | 12.26757 | 15 ft | 10 kts | 70° |
| 2026-05-07 12:47 | 41.80694 | 12.26840 | 16 ft | 9 kts | 68° |
| 2026-05-07 12:48 | 41.80716 | 12.26917 | 13 ft | 8 kts | 69° |
| 2026-05-07 12:48 | 41.80735 | 12.26986 | 15 ft | 7 kts | 69° |
| 2026-05-07 12:48 | 41.80764 | 12.27033 | 13 ft | 6 kts | 31° |
| 2026-05-07 12:48 | 41.80808 | 12.27038 | 13 ft | 6 kts | 349° |
| 2026-05-07 12:49 | 41.80845 | 12.27022 | 14 ft | 5 kts | 340° |
| 2026-05-07 12:49 | 41.80874 | 12.27008 | 13 ft | 4 kts | 339° |
| 2026-05-07 12:49 | 41.80899 | 12.26996 | 14 ft | 5 kts | 339° |
| 2026-05-07 12:49 | 41.80952 | 12.26958 | 13 ft | 12 kts | 310° |
| 2026-05-07 12:50 | 41.80943 | 12.26873 | 14 ft | 0 kts | 249° |
| 2026-05-07 12:50 | 41.80850 | 12.26534 | 17 ft | 77 kts | 250° |
| 2026-05-07 12:50 | 41.80594 | 12.25609 | 17 ft | 135 kts | 249° |
| 2026-05-07 12:50 | 41.80212 | 12.24243 | 139 ft | 168 kts | 250° |
| 2026-05-07 12:51 | 41.79805 | 12.22795 | 851 ft | 167 kts | 249° |
| 2026-05-07 12:51 | 41.79375 | 12.21324 | 1428 ft | 177 kts | 253° |
| 2026-05-07 12:51 | 41.79243 | 12.19575 | 1721 ft | 201 kts | 270° |
| 2026-05-07 12:51 | 41.79220 | 12.17579 | 2118 ft | 227 kts | 269° |
| 2026-05-07 12:52 | 41.79177 | 12.15350 | 2543 ft | 251 kts | 268° |
| 2026-05-07 12:52 | 41.79119 | 12.12937 | 3198 ft | 265 kts | 269° |
| 2026-05-07 12:52 | 41.79054 | 12.10455 | 4117 ft | 268 kts | 268° |
| 2026-05-07 12:52 | 41.79007 | 12.07952 | 5076 ft | 270 kts | 269° |
| 2026-05-07 12:53 | 41.78997 | 12.05432 | 6018 ft | 271 kts | 270° |
| 2026-05-07 12:53 | 41.78999 | 12.02896 | 6956 ft | 272 kts | 269° |
| 2026-05-07 12:53 | 41.79004 | 12.00348 | 7811 ft | 275 kts | 269° |
| 2026-05-07 12:53 | 41.79008 | 11.97779 | 8701 ft | 277 kts | 269° |
| 2026-05-07 12:54 | 41.79008 | 11.95189 | 9585 ft | 279 kts | 269° |
| 2026-05-07 12:54 | 41.79000 | 11.92571 | 10352 ft | 285 kts | 269° |
| 2026-05-07 12:54 | 41.78988 | 11.89808 | 10613 ft | 309 kts | 269° |
| 2026-05-07 12:54 | 41.78974 | 11.86823 | 10808 ft | 332 kts | 269° |
| 2026-05-07 12:55 | 41.78964 | 11.84729 | 10909 ft | 347 kts | 269° |
| 2026-05-07 12:55 | 41.78951 | 11.81430 | 11347 ft | 358 kts | 269° |
| 2026-05-07 12:55 | 41.78942 | 11.78066 | 12015 ft | 363 kts | 268° |
| 2026-05-07 12:55 | 41.78932 | 11.74676 | 12723 ft | 366 kts | 268° |
| 2026-05-07 12:56 | 41.78920 | 11.71255 | 13422 ft | 369 kts | 268° |
| 2026-05-07 12:56 | 41.78905 | 11.67810 | 14091 ft | 371 kts | 268° |
| 2026-05-07 12:56 | 41.78888 | 11.64337 | 14765 ft | 372 kts | 268° |
| 2026-05-07 12:56 | 41.78869 | 11.60864 | 15433 ft | 374 kts | 268° |
| 2026-05-07 12:57 | 41.78849 | 11.57369 | 16094 ft | 376 kts | 268° |
| 2026-05-07 12:57 | 41.78944 | 11.53861 | 16729 ft | 379 kts | 274° |
| 2026-05-07 12:57 | 41.79234 | 11.50335 | 17377 ft | 381 kts | 274° |
| 2026-05-07 12:57 | 41.79522 | 11.46794 | 18013 ft | 383 kts | 274° |
| 2026-05-07 12:58 | 41.79807 | 11.43232 | 18580 ft | 385 kts | 274° |
| 2026-05-07 12:58 | 41.80093 | 11.39644 | 19100 ft | 387 kts | 274° |
| 2026-05-07 12:58 | 41.80335 | 11.36042 | 19614 ft | 388 kts | 269° |
| 2026-05-07 12:58 | 41.80178 | 11.32437 | 20119 ft | 388 kts | 260° |
| 2026-05-07 12:59 | 41.79607 | 11.28901 | 20614 ft | 389 kts | 256° |
| 2026-05-07 12:59 | 41.78980 | 11.25364 | 21073 ft | 392 kts | 256° |
| 2026-05-07 12:59 | 41.78359 | 11.21847 | 21531 ft | 393 kts | 256° |
| 2026-05-07 12:59 | 41.77722 | 11.18222 | 21993 ft | 395 kts | 256° |
| 2026-05-07 13:00 | 41.77092 | 11.14632 | 22433 ft | 397 kts | 256° |
| 2026-05-07 13:00 | 41.76458 | 11.11024 | 22865 ft | 398 kts | 256° |
| 2026-05-07 13:00 | 41.75820 | 11.07412 | 23288 ft | 400 kts | 256° |
| 2026-05-07 13:00 | 41.75176 | 11.03778 | 23680 ft | 402 kts | 256° |
| 2026-05-07 13:01 | 41.74527 | 11.00132 | 24017 ft | 403 kts | 256° |
| 2026-05-07 13:01 | 41.73875 | 10.96478 | 24361 ft | 404 kts | 256° |
| 2026-05-07 13:01 | 41.73223 | 10.92810 | 24704 ft | 405 kts | 256° |
| 2026-05-07 13:01 | 41.72570 | 10.89136 | 25036 ft | 406 kts | 256° |
| 2026-05-07 13:02 | 41.71914 | 10.85458 | 25352 ft | 407 kts | 256° |
| 2026-05-07 13:02 | 41.71254 | 10.81771 | 25669 ft | 408 kts | 256° |
| 2026-05-07 13:02 | 41.70592 | 10.78078 | 25978 ft | 409 kts | 256° |
| 2026-05-07 13:02 | 41.69927 | 10.74376 | 26271 ft | 409 kts | 256° |
| 2026-05-07 13:03 | 41.69259 | 10.70669 | 26548 ft | 409 kts | 256° |
| 2026-05-07 13:03 | 41.68593 | 10.66977 | 26902 ft | 408 kts | 256° |
| 2026-05-07 13:03 | 41.67926 | 10.63295 | 27193 ft | 408 kts | 256° |
| 2026-05-07 13:03 | 41.67259 | 10.59605 | 27487 ft | 407 kts | 256° |
| 2026-05-07 13:04 | 41.66592 | 10.55934 | 27852 ft | 405 kts | 256° |
| 2026-05-07 13:04 | 41.65924 | 10.52281 | 28187 ft | 404 kts | 255° |
| 2026-05-07 13:04 | 41.65256 | 10.48632 | 28529 ft | 403 kts | 255° |
| 2026-05-07 13:04 | 41.64591 | 10.44999 | 28899 ft | 401 kts | 255° |
| 2026-05-07 13:05 | 41.63939 | 10.41428 | 29262 ft | 400 kts | 255° |
| 2026-05-07 13:05 | 41.63282 | 10.37831 | 29640 ft | 398 kts | 255° |
| 2026-05-07 13:05 | 41.62622 | 10.34238 | 30019 ft | 396 kts | 255° |
| 2026-05-07 13:05 | 41.61964 | 10.30675 | 30349 ft | 394 kts | 255° |
| 2026-05-07 13:06 | 41.61307 | 10.27125 | 30654 ft | 393 kts | 255° |
| 2026-05-07 13:06 | 41.60652 | 10.23585 | 30958 ft | 392 kts | 255° |
| 2026-05-07 13:06 | 41.60000 | 10.20056 | 31273 ft | 391 kts | 255° |
| 2026-05-07 13:06 | 41.59347 | 10.16529 | 31522 ft | 391 kts | 255° |
| 2026-05-07 13:07 | 41.58692 | 10.12996 | 31792 ft | 391 kts | 255° |
| 2026-05-07 13:07 | 41.58035 | 10.09464 | 32087 ft | 390 kts | 255° |
| 2026-05-07 13:07 | 41.57379 | 10.05954 | 32386 ft | 389 kts | 255° |
| 2026-05-07 13:07 | 41.56722 | 10.02447 | 32696 ft | 388 kts | 255° |
| 2026-05-07 13:08 | 41.56067 | 9.98959 | 32998 ft | 387 kts | 255° |
| 2026-05-07 13:08 | 41.55413 | 9.95472 | 33271 ft | 386 kts | 255° |
| 2026-05-07 13:08 | 41.54768 | 9.92023 | 33718 ft | 380 kts | 255° |
| 2026-05-07 13:08 | 41.54130 | 9.88620 | 34126 ft | 376 kts | 255° |
| 2026-05-07 13:09 | 41.53493 | 9.85250 | 34437 ft | 374 kts | 255° |
| 2026-05-07 13:09 | 41.52856 | 9.81886 | 34722 ft | 373 kts | 255° |
| 2026-05-07 13:09 | 41.52218 | 9.78531 | 34917 ft | 374 kts | 255° |
| 2026-05-07 13:09 | 41.51579 | 9.75170 | 35130 ft | 374 kts | 255° |
| 2026-05-07 13:10 | 41.50941 | 9.71809 | 35351 ft | 373 kts | 255° |
| 2026-05-07 13:10 | 41.50305 | 9.68450 | 35575 ft | 373 kts | 255° |
| 2026-05-07 13:10 | 41.49677 | 9.65146 | 35790 ft | 372 kts | 255° |
| 2026-05-07 13:10 | 41.49032 | 9.61762 | 36007 ft | 371 kts | 255° |
| 2026-05-07 13:11 | 41.48404 | 9.58468 | 36209 ft | 371 kts | 255° |
| 2026-05-07 13:11 | 41.47770 | 9.55135 | 36410 ft | 370 kts | 255° |
| 2026-05-07 13:11 | 41.47134 | 9.51801 | 36609 ft | 370 kts | 255° |
| 2026-05-07 13:11 | 41.46499 | 9.48485 | 36801 ft | 370 kts | 255° |
| 2026-05-07 13:12 | 41.45859 | 9.45165 | 36973 ft | 370 kts | 254° |
| 2026-05-07 13:12 | 41.45212 | 9.41829 | 36998 ft | 374 kts | 254° |
| 2026-05-07 13:12 | 41.43905 | 9.35087 | 36989 ft | 376 kts | 254° |
| 2026-05-07 13:13 | 41.42591 | 9.28332 | 36989 ft | 377 kts | 254° |
| 2026-05-07 13:13 | 41.41274 | 9.21572 | 36985 ft | 377 kts | 254° |
| 2026-05-07 13:14 | 41.39960 | 9.14840 | 36976 ft | 372 kts | 254° |
| 2026-05-07 13:14 | 41.38654 | 9.08170 | 37010 ft | 371 kts | 254° |
| 2026-05-07 13:15 | 41.37347 | 9.01519 | 36994 ft | 371 kts | 254° |
| 2026-05-07 13:15 | 41.36037 | 8.94865 | 36988 ft | 372 kts | 254° |
| 2026-05-07 13:16 | 41.34719 | 8.88210 | 36980 ft | 372 kts | 253° |
| 2026-05-07 13:16 | 41.33402 | 8.81546 | 36978 ft | 373 kts | 256° |
| 2026-05-07 13:17 | 41.32611 | 8.74722 | 36983 ft | 374 kts | 259° |
| 2026-05-07 13:17 | 41.31861 | 8.67871 | 36988 ft | 375 kts | 259° |
| 2026-05-07 13:18 | 41.31099 | 8.61005 | 36976 ft | 376 kts | 259° |
| 2026-05-07 13:18 | 41.30327 | 8.54118 | 36975 ft | 376 kts | 259° |
| 2026-05-07 13:19 | 41.29548 | 8.47228 | 36979 ft | 377 kts | 259° |
| 2026-05-07 13:19 | 41.28774 | 8.40374 | 36973 ft | 377 kts | 259° |
| 2026-05-07 13:20 | 41.27989 | 8.33474 | 36996 ft | 378 kts | 258° |
| 2026-05-07 13:20 | 41.27199 | 8.26554 | 36982 ft | 379 kts | 258° |
| 2026-05-07 13:21 | 41.26404 | 8.19619 | 36965 ft | 379 kts | 258° |
| 2026-05-07 13:21 | 41.25605 | 8.12701 | 36988 ft | 378 kts | 258° |
| 2026-05-07 13:22 | 41.24803 | 8.05797 | 36995 ft | 378 kts | 258° |
| 2026-05-07 13:22 | 41.23997 | 7.98895 | 36996 ft | 378 kts | 258° |
| 2026-05-07 13:23 | 41.23187 | 7.91991 | 37003 ft | 379 kts | 258° |
| 2026-05-07 13:23 | 41.22370 | 7.85058 | 36989 ft | 380 kts | 258° |
| 2026-05-07 13:24 | 41.21546 | 7.78117 | 36985 ft | 380 kts | 258° |
| 2026-05-07 13:24 | 41.20719 | 7.71176 | 36987 ft | 381 kts | 258° |
| 2026-05-07 13:25 | 41.19887 | 7.64229 | 36989 ft | 381 kts | 258° |
| 2026-05-07 13:25 | 41.19048 | 7.57274 | 37000 ft | 382 kts | 257° |
| 2026-05-07 13:26 | 41.18202 | 7.50314 | 36993 ft | 382 kts | 257° |
| 2026-05-07 13:26 | 41.17348 | 7.43342 | 36986 ft | 383 kts | 257° |
| 2026-05-07 13:27 | 41.16498 | 7.36361 | 36985 ft | 383 kts | 257° |
| 2026-05-07 13:27 | 41.15644 | 7.29381 | 36988 ft | 384 kts | 257° |
| 2026-05-07 13:28 | 41.14773 | 7.22399 | 36993 ft | 384 kts | 257° |
| 2026-05-07 13:28 | 41.13906 | 7.15457 | 36991 ft | 384 kts | 257° |
| 2026-05-07 13:29 | 41.13038 | 7.08471 | 36992 ft | 384 kts | 257° |
| 2026-05-07 13:29 | 41.12165 | 7.01481 | 36978 ft | 383 kts | 257° |
| 2026-05-07 13:30 | 41.11279 | 6.94504 | 36992 ft | 383 kts | 257° |
| 2026-05-07 13:30 | 41.10394 | 6.87543 | 36995 ft | 383 kts | 257° |
| 2026-05-07 13:31 | 41.09504 | 6.80574 | 37010 ft | 383 kts | 257° |
| 2026-05-07 13:31 | 41.08609 | 6.73602 | 36997 ft | 384 kts | 257° |
| 2026-05-07 13:32 | 41.07712 | 6.66618 | 36993 ft | 385 kts | 257° |
| 2026-05-07 13:32 | 41.06810 | 6.59631 | 36984 ft | 385 kts | 257° |
| 2026-05-07 13:33 | 41.05905 | 6.52640 | 36987 ft | 385 kts | 257° |
| 2026-05-07 13:33 | 41.04997 | 6.45695 | 37001 ft | 385 kts | 256° |
| 2026-05-07 13:34 | 41.03616 | 6.35185 | 36997 ft | 386 kts | 256° |
| 2026-05-07 13:35 | 41.02686 | 6.28171 | 36988 ft | 387 kts | 256° |
| 2026-05-07 13:35 | 41.01748 | 6.21157 | 36996 ft | 387 kts | 256° |
| 2026-05-07 13:36 | 41.00810 | 6.14131 | 36989 ft | 387 kts | 256° |
| 2026-05-07 13:36 | 40.99867 | 6.07106 | 37002 ft | 388 kts | 256° |
| 2026-05-07 13:37 | 40.98916 | 6.00073 | 36983 ft | 389 kts | 256° |
| 2026-05-07 13:37 | 40.97963 | 5.93023 | 36980 ft | 389 kts | 256° |
| 2026-05-07 13:38 | 40.97002 | 5.85977 | 36969 ft | 389 kts | 256° |
| 2026-05-07 13:38 | 40.96035 | 5.78933 | 36980 ft | 389 kts | 256° |
| 2026-05-07 13:39 | 40.95225 | 5.73075 | 36987 ft | 389 kts | 255° |
| 2026-05-07 13:39 | 40.93293 | 5.66496 | 36987 ft | 383 kts | 237° |
| 2026-05-07 13:40 | 40.90238 | 5.60729 | 36979 ft | 383 kts | 234° |
| 2026-05-07 13:40 | 40.87150 | 5.54980 | 36977 ft | 384 kts | 234° |
| 2026-05-07 13:41 | 40.84065 | 5.49220 | 36978 ft | 384 kts | 234° |
| 2026-05-07 13:41 | 40.80973 | 5.43463 | 36979 ft | 384 kts | 234° |
| 2026-05-07 13:42 | 40.77873 | 5.37713 | 36950 ft | 384 kts | 234° |
| 2026-05-07 13:42 | 40.74771 | 5.31969 | 36997 ft | 384 kts | 234° |
| 2026-05-07 13:43 | 40.71665 | 5.26230 | 36988 ft | 384 kts | 234° |
| 2026-05-07 13:43 | 40.68556 | 5.20497 | 36984 ft | 384 kts | 233° |
| 2026-05-07 13:44 | 40.65442 | 5.14767 | 36982 ft | 384 kts | 233° |
| 2026-05-07 13:44 | 40.62329 | 5.09044 | 36978 ft | 384 kts | 233° |
| 2026-05-07 13:45 | 40.59218 | 5.03326 | 36978 ft | 384 kts | 233° |
| 2026-05-07 13:45 | 40.56123 | 4.97644 | 36979 ft | 384 kts | 233° |
| 2026-05-07 13:46 | 40.53000 | 4.91932 | 36985 ft | 385 kts | 233° |
| 2026-05-07 13:46 | 40.49871 | 4.86219 | 36976 ft | 385 kts | 233° |
| 2026-05-07 13:47 | 40.46730 | 4.80499 | 36971 ft | 386 kts | 233° |
| 2026-05-07 13:47 | 40.43584 | 4.74791 | 36967 ft | 386 kts | 233° |
| 2026-05-07 13:48 | 40.40442 | 4.69077 | 36967 ft | 386 kts | 233° |
| 2026-05-07 13:48 | 40.37296 | 4.63359 | 36945 ft | 386 kts | 233° |
| 2026-05-07 13:49 | 40.34144 | 4.57653 | 36956 ft | 386 kts | 233° |
| 2026-05-07 13:49 | 40.31010 | 4.51993 | 36965 ft | 386 kts | 232° |
| 2026-05-07 13:50 | 40.27847 | 4.46289 | 36958 ft | 387 kts | 232° |
| 2026-05-07 13:50 | 40.24674 | 4.40593 | 36958 ft | 387 kts | 232° |
| 2026-05-07 13:51 | 40.21491 | 4.34894 | 36956 ft | 388 kts | 232° |
| 2026-05-07 13:51 | 40.18309 | 4.29185 | 36957 ft | 388 kts | 232° |
| 2026-05-07 13:52 | 40.15120 | 4.23478 | 36946 ft | 388 kts | 232° |
| 2026-05-07 13:52 | 40.11937 | 4.17787 | 36967 ft | 388 kts | 232° |
| 2026-05-07 13:53 | 40.08741 | 4.12092 | 36955 ft | 389 kts | 232° |
| 2026-05-07 13:53 | 40.05559 | 4.06429 | 36955 ft | 390 kts | 232° |
| 2026-05-07 13:54 | 40.02325 | 4.00695 | 36953 ft | 390 kts | 232° |
| 2026-05-07 13:54 | 39.99129 | 3.95023 | 36951 ft | 390 kts | 232° |
| 2026-05-07 13:55 | 39.95917 | 3.89324 | 36931 ft | 390 kts | 232° |
| 2026-05-07 13:55 | 39.92693 | 3.83628 | 36937 ft | 390 kts | 232° |
| 2026-05-07 13:56 | 39.89465 | 3.77937 | 36953 ft | 390 kts | 232° |
| 2026-05-07 13:56 | 39.86232 | 3.72240 | 36942 ft | 391 kts | 232° |
| 2026-05-07 13:57 | 39.82986 | 3.66554 | 36939 ft | 392 kts | 232° |
| 2026-05-07 13:57 | 39.79740 | 3.60855 | 36939 ft | 392 kts | 232° |
| 2026-05-07 13:58 | 39.76488 | 3.55152 | 36941 ft | 392 kts | 232° |
| 2026-05-07 13:58 | 39.73229 | 3.49468 | 36921 ft | 392 kts | 231° |
| 2026-05-07 13:59 | 39.70009 | 3.43798 | 36923 ft | 393 kts | 235° |
| 2026-05-07 13:59 | 39.67482 | 3.37480 | 36930 ft | 395 kts | 240° |
| 2026-05-07 14:00 | 39.65032 | 3.31095 | 36939 ft | 395 kts | 240° |
| 2026-05-07 14:00 | 39.62567 | 3.24731 | 36944 ft | 395 kts | 240° |
| 2026-05-07 14:01 | 39.60098 | 3.18371 | 36944 ft | 395 kts | 240° |
| 2026-05-07 14:01 | 39.57630 | 3.12014 | 36943 ft | 395 kts | 240° |
| 2026-05-07 14:02 | 39.55165 | 3.05654 | 36940 ft | 395 kts | 240° |
| 2026-05-07 14:02 | 39.52693 | 2.99294 | 36948 ft | 395 kts | 240° |
| 2026-05-07 14:03 | 39.50218 | 2.92938 | 36946 ft | 395 kts | 240° |
| 2026-05-07 14:03 | 39.47736 | 2.86581 | 36938 ft | 395 kts | 240° |
| 2026-05-07 14:04 | 39.45250 | 2.80240 | 36944 ft | 395 kts | 240° |
| 2026-05-07 14:04 | 39.42466 | 2.74152 | 36943 ft | 392 kts | 230° |
| 2026-05-07 14:05 | 39.39013 | 2.68687 | 36938 ft | 392 kts | 230° |
| 2026-05-07 14:05 | 39.35568 | 2.63218 | 36942 ft | 392 kts | 229° |
| 2026-05-07 14:06 | 39.32146 | 2.57776 | 36917 ft | 393 kts | 230° |
| 2026-05-07 14:06 | 39.30420 | 2.55039 | 36813 ft | 394 kts | 229° |
| 2026-05-07 14:06 | 39.28687 | 2.52298 | 36553 ft | 394 kts | 229° |
| 2026-05-07 14:06 | 39.26954 | 2.49560 | 36295 ft | 394 kts | 229° |
| 2026-05-07 14:07 | 39.25221 | 2.46822 | 36041 ft | 393 kts | 229° |
| 2026-05-07 14:07 | 39.23489 | 2.44090 | 35786 ft | 393 kts | 229° |
| 2026-05-07 14:07 | 39.21756 | 2.41362 | 35540 ft | 393 kts | 229° |
| 2026-05-07 14:07 | 39.20022 | 2.38633 | 35290 ft | 393 kts | 228° |
| 2026-05-07 14:08 | 39.18290 | 2.35906 | 35043 ft | 393 kts | 228° |
| 2026-05-07 14:08 | 39.16556 | 2.33183 | 34800 ft | 393 kts | 228° |
| 2026-05-07 14:08 | 39.14817 | 2.30460 | 34496 ft | 393 kts | 227° |
| 2026-05-07 14:08 | 39.13083 | 2.27743 | 33730 ft | 392 kts | 227° |
| 2026-05-07 14:09 | 39.11354 | 2.25030 | 32870 ft | 391 kts | 227° |
| 2026-05-07 14:09 | 39.09627 | 2.22320 | 31999 ft | 391 kts | 227° |
| 2026-05-07 14:09 | 39.07902 | 2.19622 | 31126 ft | 391 kts | 227° |
| 2026-05-07 14:09 | 39.06171 | 2.16920 | 30298 ft | 391 kts | 227° |
| 2026-05-07 14:10 | 39.04431 | 2.14206 | 29232 ft | 394 kts | 228° |
| 2026-05-07 14:10 | 39.02679 | 2.11475 | 28195 ft | 397 kts | 228° |
| 2026-05-07 14:10 | 39.00922 | 2.08732 | 27233 ft | 398 kts | 228° |
| 2026-05-07 14:10 | 38.99154 | 2.05971 | 26150 ft | 403 kts | 228° |
| 2026-05-07 14:11 | 38.97362 | 2.03168 | 25101 ft | 409 kts | 229° |
| 2026-05-07 14:11 | 38.95562 | 2.00363 | 24084 ft | 416 kts | 229° |
| 2026-05-07 14:11 | 38.93706 | 1.97477 | 22974 ft | 422 kts | 229° |
| 2026-05-07 14:11 | 38.91958 | 1.94423 | 21929 ft | 425 kts | 236° |
| 2026-05-07 14:12 | 38.90590 | 1.91072 | 21130 ft | 424 kts | 245° |
| 2026-05-07 14:12 | 38.89627 | 1.87499 | 20287 ft | 425 kts | 253° |
| 2026-05-07 14:12 | 38.88884 | 1.83832 | 19454 ft | 424 kts | 253° |
| 2026-05-07 14:12 | 38.88137 | 1.80178 | 18633 ft | 423 kts | 253° |
| 2026-05-07 14:13 | 38.87384 | 1.76524 | 17776 ft | 422 kts | 253° |
| 2026-05-07 14:13 | 38.86631 | 1.72896 | 16978 ft | 420 kts | 253° |
| 2026-05-07 14:13 | 38.85880 | 1.69281 | 16222 ft | 417 kts | 253° |
| 2026-05-07 14:13 | 38.85135 | 1.65697 | 15489 ft | 415 kts | 253° |
| 2026-05-07 14:14 | 38.84393 | 1.62133 | 14782 ft | 413 kts | 253° |
| 2026-05-07 14:14 | 38.83654 | 1.58583 | 14096 ft | 411 kts | 253° |
| 2026-05-07 14:14 | 38.82900 | 1.55058 | 13405 ft | 408 kts | 252° |
| 2026-05-07 14:14 | 38.82138 | 1.51612 | 13174 ft | 393 kts | 252° |
| 2026-05-07 14:15 | 38.81401 | 1.48316 | 13036 ft | 376 kts | 252° |
| 2026-05-07 14:15 | 38.80691 | 1.45162 | 12902 ft | 361 kts | 253° |
| 2026-05-07 14:15 | 38.79854 | 1.42212 | 12767 ft | 345 kts | 242° |
| 2026-05-07 14:15 | 38.78758 | 1.39548 | 12639 ft | 331 kts | 240° |
| 2026-05-07 14:16 | 38.77699 | 1.36994 | 12511 ft | 319 kts | 241° |
| 2026-05-07 14:16 | 38.76677 | 1.34523 | 12378 ft | 307 kts | 240° |
| 2026-05-07 14:16 | 38.75713 | 1.32190 | 12247 ft | 286 kts | 239° |
| 2026-05-07 14:16 | 38.74810 | 1.30004 | 11993 ft | 273 kts | 239° |
| 2026-05-07 14:17 | 38.73928 | 1.27871 | 11769 ft | 269 kts | 240° |
| 2026-05-07 14:17 | 38.73054 | 1.25771 | 11526 ft | 266 kts | 240° |
| 2026-05-07 14:17 | 38.72185 | 1.23691 | 11208 ft | 265 kts | 239° |
| 2026-05-07 14:17 | 38.71312 | 1.21605 | 10851 ft | 267 kts | 240° |
| 2026-05-07 14:18 | 38.70432 | 1.19505 | 10495 ft | 268 kts | 239° |
| 2026-05-07 14:18 | 38.69556 | 1.17416 | 10222 ft | 265 kts | 240° |
| 2026-05-07 14:18 | 38.68680 | 1.15329 | 9864 ft | 266 kts | 240° |
| 2026-05-07 14:18 | 38.67810 | 1.13249 | 9537 ft | 265 kts | 240° |
| 2026-05-07 14:19 | 38.66943 | 1.11175 | 9153 ft | 264 kts | 240° |
| 2026-05-07 14:19 | 38.66082 | 1.09113 | 8645 ft | 261 kts | 240° |
| 2026-05-07 14:19 | 38.65226 | 1.07064 | 8268 ft | 261 kts | 240° |
| 2026-05-07 14:19 | 38.64518 | 1.04927 | 7936 ft | 259 kts | 255° |
| 2026-05-07 14:20 | 38.64180 | 1.02644 | 7383 ft | 266 kts | 260° |
| 2026-05-07 14:20 | 38.63983 | 1.01100 | 7164 ft | 264 kts | 259° |
| 2026-05-07 14:20 | 38.64097 | 0.98082 | 6956 ft | 250 kts | 294° |
| 2026-05-07 14:20 | 38.65098 | 0.96361 | 6808 ft | 237 kts | 326° |
| 2026-05-07 14:21 | 38.66507 | 0.95406 | 6717 ft | 232 kts | 347° |
| 2026-05-07 14:21 | 38.68080 | 0.95237 | 6590 ft | 224 kts | 12° |
| 2026-05-07 14:21 | 38.69515 | 0.95905 | 6374 ft | 215 kts | 37° |
| 2026-05-07 14:21 | 38.70551 | 0.97212 | 6043 ft | 212 kts | 59° |
| 2026-05-07 14:22 | 38.71256 | 0.98857 | 5766 ft | 210 kts | 63° |
| 2026-05-07 14:22 | 38.71944 | 1.00502 | 5506 ft | 208 kts | 63° |
| 2026-05-07 14:22 | 38.72624 | 1.02127 | 5269 ft | 205 kts | 63° |
| 2026-05-07 14:22 | 38.73296 | 1.03731 | 5039 ft | 203 kts | 63° |
| 2026-05-07 14:23 | 38.73961 | 1.05319 | 4815 ft | 202 kts | 63° |
| 2026-05-07 14:23 | 38.74626 | 1.06907 | 4587 ft | 201 kts | 63° |
| 2026-05-07 14:23 | 38.75072 | 1.07973 | 4417 ft | 200 kts | 63° |
| 2026-05-07 14:23 | 38.75726 | 1.09538 | 4190 ft | 198 kts | 63° |
| 2026-05-07 14:24 | 38.76373 | 1.11085 | 3967 ft | 196 kts | 63° |
| 2026-05-07 14:24 | 38.77004 | 1.12597 | 3746 ft | 194 kts | 63° |
| 2026-05-07 14:24 | 38.77636 | 1.14109 | 3530 ft | 191 kts | 63° |
| 2026-05-07 14:24 | 38.78256 | 1.15595 | 3425 ft | 189 kts | 63° |
| 2026-05-07 14:25 | 38.78866 | 1.17056 | 3279 ft | 182 kts | 63° |
| 2026-05-07 14:25 | 38.79452 | 1.18462 | 3041 ft | 176 kts | 63° |
| 2026-05-07 14:25 | 38.80021 | 1.19826 | 2800 ft | 171 kts | 64° |
| 2026-05-07 14:25 | 38.80575 | 1.21156 | 2576 ft | 167 kts | 63° |
| 2026-05-07 14:26 | 38.81112 | 1.22446 | 2351 ft | 160 kts | 63° |
| 2026-05-07 14:26 | 38.81623 | 1.23674 | 2144 ft | 153 kts | 63° |
| 2026-05-07 14:26 | 38.82112 | 1.24849 | 1941 ft | 146 kts | 63° |
| 2026-05-07 14:26 | 38.82570 | 1.25950 | 1759 ft | 135 kts | 64° |
| 2026-05-07 14:27 | 38.83005 | 1.26997 | 1580 ft | 132 kts | 62° |
| 2026-05-07 14:27 | 38.83434 | 1.28029 | 1406 ft | 131 kts | 62° |
| 2026-05-07 14:27 | 38.83863 | 1.29061 | 1225 ft | 130 kts | 63° |
| 2026-05-07 14:27 | 38.84289 | 1.30088 | 1052 ft | 130 kts | 63° |
| 2026-05-07 14:28 | 38.84718 | 1.31120 | 874 ft | 130 kts | 62° |
| 2026-05-07 14:28 | 38.85150 | 1.32161 | 696 ft | 132 kts | 61° |
| 2026-05-07 14:28 | 38.85581 | 1.33199 | 528 ft | 132 kts | 63° |
| 2026-05-07 14:28 | 38.86010 | 1.34235 | 362 ft | 130 kts | 65° |
| 2026-05-07 14:29 | 38.86442 | 1.35253 | 196 ft | 129 kts | 68° |
| 2026-05-07 14:29 | 38.86878 | 1.36255 | 9 ft | 124 kts | 82° |
| 2026-05-07 14:29 | 38.87146 | 1.36977 | 12 ft | 48 kts | 62° |
| 2026-05-07 14:29 | 38.87189 | 1.37081 | 11 ft | 0 kts | 62° |
| 2026-05-07 14:30 | 38.87191 | 1.37085 | 11 ft | 3 kts | 62° |
| 2026-05-07 14:30 | 38.87233 | 1.37187 | 13 ft | 17 kts | 62° |
| 2026-05-07 14:30 | 38.87296 | 1.37331 | 10 ft | 20 kts | 58° |
| 2026-05-07 14:30 | 38.87398 | 1.37453 | 10 ft | 15 kts | 34° |
| 2026-05-07 14:31 | 38.87481 | 1.37523 | 9 ft | 15 kts | 32° |
| 2026-05-07 14:31 | 38.87579 | 1.37556 | 9 ft | 14 kts | 337° |
| 2026-05-07 14:31 | 38.87651 | 1.37511 | 10 ft | 11 kts | 331° |
| 2026-05-07 14:31 | 38.87696 | 1.37449 | 9 ft | 9 kts | 278° |
| 2026-05-07 14:32 | 38.87675 | 1.37375 | 8 ft | 8 kts | 242° |
| 2026-05-07 14:32 | 38.87649 | 1.37311 | 8 ft | 8 kts | 242° |
| 2026-05-07 14:32 | 38.87625 | 1.37253 | 10 ft | 7 kts | 242° |
| 2026-05-07 14:32 | 38.87595 | 1.37181 | 10 ft | 18 kts | 242° |
| 2026-05-07 14:33 | 38.87532 | 1.37030 | 8 ft | 7 kts | 242° |
| 2026-05-07 14:33 | 38.87510 | 1.36972 | 10 ft | 9 kts | 248° |
| 2026-05-07 14:33 | 38.87541 | 1.36931 | 8 ft | 0 kts | 339° |
| 2026-05-07 14:33 | 38.87549 | 1.36926 | 8 ft | 2 kts | 335° |
| 2026-05-07 14:34 | 38.87561 | 1.36919 | 8 ft | 2 kts | 334° |
| 2026-05-07 14:34 | 38.87567 | 1.36915 | 8 ft | 0 kts | 333° |